Time;durP1;ratioP1;P1;durP2;ratioP2;P2;SDS_P1;SDS_P2;PMS_P1;PMS_P2;Temp;Humidity;BMP_temperature;BMP_pressure;BME280_temperature;BME280_humidity;BME280_pressure;Samples;Min_cycle;Max_cycle;Signal;HPM_P1;HPM_P2
2021/03/25 00:01:55;;;;;;;28.93;13.27;;;6.50;81.50;;;;;;5059515;28;20236;-72
2021/03/25 00:04:22;;;;;;;25.90;12.10;;;6.50;81.50;;;;;;5070174;28;21014;-71
2021/03/25 00:06:51;;;;;;;24.93;13.03;;;6.50;81.50;;;;;;5070749;28;20769;-72
2021/03/25 00:09:24;;;;;;;27.77;12.33;;;6.50;81.70;;;;;;5070365;28;20567;-72
2021/03/25 00:11:50;;;;;;;22.77;12.00;;;6.50;81.70;;;;;;5073132;28;20430;-72
2021/03/25 00:14:16;;;;;;;23.67;11.60;;;6.50;81.70;;;;;;5068686;28;20474;-71
2021/03/25 00:16:42;;;;;;;31.13;12.97;;;6.50;81.50;;;;;;5070973;28;20184;-71
2021/03/25 00:19:09;;;;;;;31.27;13.80;;;6.50;82.10;;;;;;5068826;28;20421;-72
2021/03/25 00:21:35;;;;;;;24.27;11.63;;;6.50;82.40;;;;;;5069851;28;20661;-72
2021/03/25 00:24:02;;;;;;;25.13;12.10;;;6.50;82.10;;;;;;5070025;28;20442;-71
2021/03/25 00:26:28;;;;;;;24.97;12.50;;;6.50;82.20;;;;;;5075591;28;20438;-72
2021/03/25 00:28:54;;;;;;;28.03;13.00;;;6.40;82.50;;;;;;5066628;28;20811;-72
2021/03/25 00:31:20;;;;;;;28.17;11.83;;;6.40;82.80;;;;;;5070457;28;20418;-71
2021/03/25 00:33:46;;;;;;;28.53;12.47;;;6.40;83.10;;;;;;5069992;28;20681;-70
2021/03/25 00:36:11;;;;;;;24.87;11.47;;;6.30;83.60;;;;;;5070029;28;20186;-72
2021/03/25 00:38:37;;;;;;;24.97;11.97;;;6.30;83.60;;;;;;5057129;28;20506;-70
2021/03/25 00:41:03;;;;;;;26.03;11.40;;;6.30;83.70;;;;;;5070261;28;20799;-71
2021/03/25 00:43:29;;;;;;;29.70;13.30;;;6.30;83.70;;;;;;5086149;28;20184;-72
2021/03/25 00:45:55;;;;;;;26.20;13.00;;;6.30;83.70;;;;;;5061130;28;20836;-72
2021/03/25 00:48:23;;;;;;;25.77;12.87;;;6.20;84.00;;;;;;5066275;28;20207;-71
2021/03/25 00:50:55;;;;;;;33.30;13.50;;;6.10;84.40;;;;;;5072886;28;20422;-71
2021/03/25 00:53:24;;;;;;;30.03;11.70;;;6.10;84.60;;;;;;5073898;28;20437;-71
2021/03/25 00:55:52;;;;;;;28.37;12.70;;;6.10;84.60;;;;;;5071644;28;21026;-71
2021/03/25 00:58:18;;;;;;;30.67;12.70;;;6.10;84.90;;;;;;5069862;28;20423;-72
2021/03/25 01:00:45;;;;;;;30.90;13.37;;;6.10;84.90;;;;;;5068775;28;20436;-73
2021/03/25 01:03:12;;;;;;;22.60;11.43;;;6.10;85.00;;;;;;5063865;28;20456;-72
2021/03/25 01:05:38;;;;;;;22.07;11.27;;;6.00;85.30;;;;;;5070168;28;21159;-72
2021/03/25 01:08:06;;;;;;;30.93;13.73;;;6.00;85.00;;;;;;5073085;28;20453;-72
2021/03/25 01:10:35;;;;;;;24.60;13.00;;;5.90;85.50;;;;;;5066689;28;20529;-72
2021/03/25 01:13:05;;;;;;;31.83;13.43;;;5.90;85.60;;;;;;5069064;28;20487;-71
2021/03/25 01:15:31;;;;;;;23.33;11.33;;;5.80;85.70;;;;;;5071413;28;20469;-71
2021/03/25 01:17:59;;;;;;;25.60;11.97;;;5.80;85.90;;;;;;5067759;28;20435;-72
2021/03/25 01:20:28;;;;;;;26.80;12.73;;;5.80;85.90;;;;;;5062809;28;20433;-71
2021/03/25 01:22:54;;;;;;;22.20;11.60;;;5.80;86.00;;;;;;5077511;28;20434;-71
2021/03/25 01:25:22;;;;;;;29.30;12.60;;;5.80;85.90;;;;;;5063316;28;20800;-72
2021/03/25 01:27:48;;;;;;;25.23;10.50;;;5.70;85.60;;;;;;5069555;28;20909;-71
2021/03/25 01:30:18;;;;;;;26.50;11.87;;;5.70;85.70;;;;;;5069380;28;20456;-71
2021/03/25 01:32:43;;;;;;;24.20;11.70;;;5.60;85.90;;;;;;5069517;28;20430;-71
2021/03/25 01:35:11;;;;;;;27.80;11.20;;;5.60;86.00;;;;;;5069331;28;20557;-71
2021/03/25 01:37:44;;;;;;;25.73;12.20;;;5.50;86.50;;;;;;5065931;28;20187;-71
2021/03/25 01:40:25;;;;;;;31.80;12.90;;;5.50;86.80;;;;;;5071238;28;20529;-72
2021/03/25 01:43:04;;;;;;;25.10;11.73;;;5.50;87.00;;;;;;5076912;28;20791;-71
2021/03/25 01:45:29;;;;;;;27.67;11.43;;;5.50;87.10;;;;;;5068076;28;20486;-72
2021/03/25 01:48:00;;;;;;;28.30;12.20;;;5.40;87.10;;;;;;5067852;28;20422;-72
2021/03/25 01:50:26;;;;;;;23.77;12.43;;;5.40;87.30;;;;;;5075464;28;20631;-71
2021/03/25 01:53:00;;;;;;;30.60;13.20;;;5.40;87.40;;;;;;5075261;28;20983;-71
2021/03/25 01:55:49;;;;;;;24.50;11.37;;;5.40;87.40;;;;;;5060931;28;20477;-71
2021/03/25 01:58:24;;;;;;;25.60;12.13;;;5.40;87.60;;;;;;5072960;28;20418;-71
2021/03/25 02:00:59;;;;;;;25.70;11.60;;;5.50;87.70;;;;;;5068250;28;20995;-70
2021/03/25 02:03:36;;;;;;;23.37;11.07;;;5.50;87.70;;;;;;5072463;28;20487;-72
2021/03/25 02:06:08;;;;;;;25.33;12.13;;;5.40;87.60;;;;;;5069281;28;20431;-71
2021/03/25 02:09:02;;;;;;;20.50;10.10;;;5.40;87.60;;;;;;5070700;28;20434;-72
2021/03/25 02:11:56;;;;;;;24.10;11.37;;;5.40;87.70;;;;;;5073493;28;20425;-71
2021/03/25 02:14:46;;;;;;;22.70;10.93;;;5.30;87.80;;;;;;5066913;28;21012;-71
2021/03/25 02:17:17;;;;;;;27.73;11.67;;;5.30;88.00;;;;;;5065976;28;20602;-71
2021/03/25 02:20:18;;;;;;;23.20;11.73;;;5.20;88.10;;;;;;5068198;28;20854;-72
2021/03/25 02:23:02;;;;;;;28.53;11.60;;;5.20;88.40;;;;;;5071438;28;20426;-71
2021/03/25 02:25:52;;;;;;;23.07;11.40;;;5.20;88.40;;;;;;5072610;28;20469;-71
2021/03/25 02:28:38;;;;;;;27.60;11.17;;;5.20;88.40;;;;;;5072470;28;20429;-71
2021/03/25 02:31:39;;;;;;;25.13;12.00;;;5.20;88.60;;;;;;5072536;28;20437;-70
2021/03/25 02:34:17;;;;;;;27.70;11.07;;;5.20;88.40;;;;;;5067636;28;20479;-70
2021/03/25 02:36:47;;;;;;;21.90;10.10;;;5.10;88.40;;;;;;5073044;28;20916;-71
2021/03/25 02:39:20;;;;;;;22.10;10.30;;;5.20;88.60;;;;;;5059052;28;20807;-71
2021/03/25 02:41:52;;;;;;;23.30;9.90;;;5.10;88.60;;;;;;5074602;28;20445;-70
2021/03/25 02:44:36;;;;;;;24.57;10.30;;;5.10;88.60;;;;;;5075483;28;20448;-70
2021/03/25 02:47:08;;;;;;;23.37;11.70;;;5.10;88.70;;;;;;5060463;28;20429;-70
2021/03/25 02:50:09;;;;;;;27.00;11.57;;;5.10;88.90;;;;;;5074097;28;20430;-71
2021/03/25 02:52:43;;;;;;;24.40;10.70;;;5.00;88.90;;;;;;5015047;28;20450;-71
2021/03/25 02:55:12;;;;;;;19.73;10.07;;;5.00;89.00;;;;;;5070541;28;20469;-72
2021/03/25 02:57:45;;;;;;;24.30;10.60;;;5.00;89.30;;;;;;5072396;28;20514;-71
2021/03/25 03:00:15;;;;;;;22.23;10.07;;;5.00;89.20;;;;;;5072581;28;20436;-71
2021/03/25 03:02:48;;;;;;;17.93;9.70;;;5.00;89.30;;;;;;5072187;28;20418;-71
2021/03/25 03:05:21;;;;;;;25.07;10.33;;;5.00;89.30;;;;;;5072947;28;20445;-72
2021/03/25 03:07:50;;;;;;;17.70;10.50;;;5.10;89.30;;;;;;5073082;28;20485;-72
2021/03/25 03:10:21;;;;;;;19.83;9.90;;;5.10;89.30;;;;;;5072723;28;20455;-71
2021/03/25 03:12:49;;;;;;;24.93;10.07;;;5.00;89.30;;;;;;5071536;28;20923;-71
2021/03/25 03:15:31;;;;;;;26.23;9.97;;;5.00;89.60;;;;;;5070633;28;20485;-70
2021/03/25 03:18:05;;;;;;;22.30;9.07;;;5.00;89.60;;;;;;5073172;28;20433;-70
2021/03/25 03:20:34;;;;;;;21.33;9.90;;;4.90;89.90;;;;;;5071896;28;20449;-71
2021/03/25 03:23:00;;;;;;;23.63;9.87;;;5.00;90.00;;;;;;5071125;28;20760;-72
2021/03/25 03:25:27;;;;;;;17.40;9.70;;;4.90;90.10;;;;;;5070551;28;20468;-72
2021/03/25 03:27:55;;;;;;;19.67;9.07;;;4.90;90.20;;;;;;5070976;28;20464;-72
2021/03/25 03:30:30;;;;;;;13.50;8.93;;;4.90;90.20;;;;;;5070727;28;21535;-70
2021/03/25 03:32:58;;;;;;;18.53;8.90;;;5.00;90.30;;;;;;5069435;28;20433;-71
2021/03/25 03:35:34;;;;;;;21.00;9.57;;;5.00;90.20;;;;;;5068707;28;20564;-70
2021/03/25 03:38:05;;;;;;;20.20;8.70;;;4.90;90.20;;;;;;5061041;28;20934;-71
2021/03/25 03:40:35;;;;;;;23.60;9.50;;;4.90;90.20;;;;;;5072438;28;20513;-71
2021/03/25 03:43:07;;;;;;;21.80;9.10;;;4.90;90.30;;;;;;5073930;28;20924;-71
2021/03/25 03:45:38;;;;;;;18.33;8.83;;;4.90;90.30;;;;;;5073356;28;20488;-70
2021/03/25 03:48:08;;;;;;;19.73;9.00;;;4.80;90.30;;;;;;5077717;28;20426;-71
2021/03/25 03:50:42;;;;;;;18.83;9.30;;;4.90;90.50;;;;;;5068440;28;20442;-70
2021/03/25 03:53:08;;;;;;;14.37;7.63;;;4.90;90.50;;;;;;5064819;28;20441;-70
2021/03/25 03:55:34;;;;;;;16.30;8.70;;;4.90;90.40;;;;;;5070156;28;20554;-71
2021/03/25 03:58:27;;;;;;;14.47;8.67;;;4.90;90.30;;;;;;5071259;28;20249;-71
2021/03/25 04:01:01;;;;;;;15.83;8.90;;;4.90;90.30;;;;;;5063027;28;20522;-70
2021/03/25 04:03:36;;;;;;;17.53;8.97;;;4.90;90.30;;;;;;5070948;28;20436;-70
2021/03/25 04:06:09;;;;;;;22.03;8.67;;;4.80;90.30;;;;;;5068194;28;20422;-70
2021/03/25 04:08:40;;;;;;;17.57;8.30;;;4.80;90.30;;;;;;5072070;28;20422;-70
2021/03/25 04:11:21;;;;;;;16.97;9.17;;;4.80;90.30;;;;;;5072726;28;20963;-71
2021/03/25 04:14:06;;;;;;;17.53;9.03;;;4.80;90.40;;;;;;5068969;28;20422;-72
2021/03/25 04:16:35;;;;;;;19.20;8.90;;;4.80;90.40;;;;;;5057572;28;20438;-71
2021/03/25 04:19:06;;;;;;;14.57;8.57;;;4.80;90.20;;;;;;5069857;28;20949;-71
2021/03/25 04:21:35;;;;;;;14.10;8.23;;;4.70;90.30;;;;;;5069914;28;20425;-71
2021/03/25 04:24:09;;;;;;;18.63;8.57;;;4.70;90.40;;;;;;5069938;28;20477;-71
2021/03/25 04:26:45;;;;;;;15.43;8.47;;;4.70;90.40;;;;;;5069224;28;20422;-70
2021/03/25 04:29:26;;;;;;;15.17;8.17;;;4.70;90.40;;;;;;5069722;28;20501;-71
2021/03/25 04:31:52;;;;;;;18.90;9.00;;;4.60;90.60;;;;;;5070196;28;20426;-70
2021/03/25 04:34:18;;;;;;;20.27;9.67;;;4.60;90.70;;;;;;5064828;28;20474;-70
2021/03/25 04:36:45;;;;;;;16.63;9.17;;;4.50;90.70;;;;;;5062178;28;20936;-71
2021/03/25 04:39:16;;;;;;;16.00;8.83;;;4.50;90.80;;;;;;5057116;28;20418;-70
2021/03/25 04:41:44;;;;;;;16.20;9.07;;;4.50;90.90;;;;;;5066038;28;20461;-71
2021/03/25 04:44:46;;;;;;;22.50;9.40;;;4.50;90.70;;;;;;5069464;28;21068;-70
2021/03/25 04:47:29;;;;;;;18.13;9.37;;;4.50;90.80;;;;;;4994647;28;20920;-71
2021/03/25 04:50:03;;;;;;;18.87;8.53;;;4.50;90.80;;;;;;5008325;28;20432;-70
2021/03/25 04:52:32;;;;;;;19.10;8.40;;;4.50;90.70;;;;;;5007875;28;20499;-71
2021/03/25 04:55:27;;;;;;;18.10;9.17;;;4.50;90.80;;;;;;4991242;28;21081;-72
2021/03/25 04:58:00;;;;;;;22.77;9.47;;;4.50;90.70;;;;;;4969064;28;20446;-72
2021/03/25 05:00:44;;;;;;;18.47;9.40;;;4.50;90.70;;;;;;4953169;28;20489;-72
2021/03/25 05:03:19;;;;;;;14.10;8.40;;;4.60;90.80;;;;;;4963003;28;20493;-71
2021/03/25 05:05:45;;;;;;;16.00;8.17;;;4.60;90.80;;;;;;4967519;28;20533;-73
2021/03/25 05:08:20;;;;;;;14.13;7.63;;;4.60;90.70;;;;;;4967117;28;20930;-72
2021/03/25 05:11:00;;;;;;;15.40;7.50;;;4.60;90.60;;;;;;4951695;28;20289;-72
2021/03/25 05:13:35;;;;;;;14.63;8.27;;;4.60;90.60;;;;;;4967766;28;20433;-70
2021/03/25 05:16:34;;;;;;;14.20;8.60;;;4.50;90.70;;;;;;4967684;28;20482;-71
2021/03/25 05:19:15;;;;;;;20.40;9.50;;;4.50;90.90;;;;;;4968367;28;20888;-71
2021/03/25 05:22:10;;;;;;;19.57;9.23;;;4.50;90.80;;;;;;4971372;28;20918;-72
2021/03/25 05:24:46;;;;;;;18.07;7.97;;;4.50;90.70;;;;;;5006644;28;20467;-71
2021/03/25 05:27:33;;;;;;;16.67;8.50;;;4.50;90.50;;;;;;5022024;28;20436;-70
2021/03/25 05:30:02;;;;;;;20.17;9.30;;;4.50;90.40;;;;;;5026855;28;20446;-72
2021/03/25 05:32:35;;;;;;;15.47;8.53;;;4.50;90.20;;;;;;5026263;28;20436;-72
2021/03/25 05:35:06;;;;;;;14.17;8.67;;;4.60;90.10;;;;;;5059653;28;21023;-72
2021/03/25 05:37:32;;;;;;;19.77;9.17;;;4.60;89.90;;;;;;5062499;28;20925;-71
2021/03/25 05:39:58;;;;;;;13.33;7.63;;;4.60;89.70;;;;;;5057510;28;20485;-71
2021/03/25 05:42:31;;;;;;;21.47;8.80;;;4.60;89.70;;;;;;5068251;28;20917;-71
2021/03/25 05:45:14;;;;;;;17.80;8.87;;;4.60;89.50;;;;;;5067513;28;20453;-72
2021/03/25 05:47:49;;;;;;;14.43;8.13;;;4.70;89.70;;;;;;5060368;28;20499;-71
2021/03/25 05:50:28;;;;;;;19.50;9.43;;;4.70;89.70;;;;;;5068940;28;20492;-71
2021/03/25 05:52:57;;;;;;;26.73;12.00;;;4.80;89.20;;;;;;5065050;28;20458;-72
2021/03/25 05:55:42;;;;;;;16.23;7.70;;;4.80;88.70;;;;;;5067571;28;20473;-71
2021/03/25 05:58:29;;;;;;;21.30;9.03;;;4.80;88.60;;;;;;5069373;28;20960;-70
2021/03/25 06:01:21;;;;;;;14.63;8.53;;;4.80;88.30;;;;;;5065015;28;20431;-71
2021/03/25 06:04:01;;;;;;;16.23;8.90;;;4.90;88.10;;;;;;5044339;28;20442;-72
2021/03/25 06:07:00;;;;;;;15.70;8.63;;;4.90;87.70;;;;;;5066816;28;20435;-72
2021/03/25 06:09:47;;;;;;;19.90;8.20;;;5.00;87.40;;;;;;5040494;28;20488;-73
2021/03/25 06:12:27;;;;;;;16.70;8.90;;;5.10;87.00;;;;;;5077977;28;20421;-72
2021/03/25 06:15:04;;;;;;;16.00;8.17;;;5.10;86.50;;;;;;5053621;28;21093;-72
2021/03/25 06:17:49;;;;;;;19.67;9.33;;;5.10;86.50;;;;;;5068543;28;20418;-71
2021/03/25 06:20:45;;;;;;;19.17;8.73;;;5.20;86.30;;;;;;5068700;28;20418;-72
2021/03/25 06:23:41;;;;;;;14.40;8.50;;;5.30;86.00;;;;;;5057322;28;20426;-71
2021/03/25 06:26:19;;;;;;;12.30;8.00;;;5.40;85.50;;;;;;5072352;28;20540;-71
2021/03/25 06:28:49;;;;;;;16.10;7.73;;;5.50;85.00;;;;;;5072178;28;20504;-71
2021/03/25 06:31:48;;;;;;;16.37;8.17;;;5.60;85.00;;;;;;5073723;28;20428;-72
2021/03/25 06:34:36;;;;;;;18.30;8.87;;;5.70;84.90;;;;;;5071899;28;20503;-72
2021/03/25 06:37:10;;;;;;;13.77;8.43;;;5.90;84.70;;;;;;5075683;28;20516;-72
2021/03/25 06:40:02;;;;;;;21.23;11.20;;;6.00;84.60;;;;;;5065821;28;20425;-72
2021/03/25 06:42:49;;;;;;;22.20;9.83;;;6.20;83.80;;;;;;5065200;28;21213;-72
2021/03/25 06:45:33;;;;;;;21.67;10.97;;;6.30;83.60;;;;;;5067895;28;20457;-71
2021/03/25 06:48:19;;;;;;;21.17;11.87;;;6.30;82.70;;;;;;5059946;28;20438;-72
2021/03/25 06:50:51;;;;;;;23.03;11.03;;;6.30;83.30;;;;;;5060541;28;20429;-72
2021/03/25 06:53:30;;;;;;;25.80;11.47;;;6.40;82.80;;;;;;5070148;28;20450;-72
2021/03/25 06:56:01;;;;;;;28.83;12.50;;;6.50;82.80;;;;;;5071265;28;21145;-72
2021/03/25 06:58:36;;;;;;;21.23;11.03;;;6.60;82.40;;;;;;5075466;28;20418;-72
2021/03/25 07:01:22;;;;;;;20.60;10.47;;;6.60;82.40;;;;;;5074942;28;20436;-73
2021/03/25 07:03:54;;;;;;;18.87;9.83;;;6.60;82.20;;;;;;5067725;28;20428;-74
2021/03/25 07:06:21;;;;;;;16.90;10.20;;;6.70;81.90;;;;;;5071954;28;20414;-74
2021/03/25 07:08:48;;;;;;;17.53;9.40;;;6.80;81.90;;;;;;5071018;28;20799;-73
2021/03/25 07:11:17;;;;;;;23.17;10.30;;;6.90;81.20;;;;;;5070577;28;20422;-73
2021/03/25 07:13:57;;;;;;;24.50;11.97;;;7.00;80.50;;;;;;5070959;28;20422;-73
2021/03/25 07:16:24;;;;;;;25.93;12.30;;;7.10;79.70;;;;;;5058197;28;20422;-74
2021/03/25 07:18:59;;;;;;;22.30;12.57;;;7.10;79.70;;;;;;5071142;28;20453;-73
2021/03/25 07:21:30;;;;;;;23.27;12.53;;;7.20;79.60;;;;;;5071009;28;20508;-73
2021/03/25 07:23:58;;;;;;;21.60;12.00;;;7.30;79.00;;;;;;5071162;28;20432;-73
2021/03/25 07:26:25;;;;;;;24.47;13.23;;;7.30;78.90;;;;;;5065386;28;20480;-74
2021/03/25 07:29:17;;;;;;;37.93;14.03;;;7.40;78.60;;;;;;5067215;28;21322;-71
2021/03/25 07:32:00;;;;;;;24.63;12.43;;;7.50;78.60;;;;;;5067660;28;21200;-73
2021/03/25 07:34:33;;;;;;;27.17;12.10;;;7.60;78.30;;;;;;5062408;28;20478;-74
2021/03/25 07:37:00;;;;;;;24.97;12.63;;;7.70;78.10;;;;;;5061332;28;20410;-74
2021/03/25 07:39:32;;;;;;;28.43;14.20;;;7.80;77.30;;;;;;5056603;28;20517;-72
2021/03/25 07:41:59;;;;;;;21.60;13.03;;;7.90;77.00;;;;;;5067231;28;21265;-74
2021/03/25 07:44:33;;;;;;;25.33;12.60;;;7.90;76.10;;;;;;5070550;28;20521;-73
2021/03/25 07:47:06;;;;;;;36.50;13.33;;;7.80;76.20;;;;;;5058411;28;20514;-74
2021/03/25 07:49:35;;;;;;;22.50;12.30;;;7.80;76.50;;;;;;5071591;28;20732;-74
2021/03/25 07:52:05;;;;;;;26.37;13.67;;;7.90;76.80;;;;;;5071153;28;20481;-73
2021/03/25 07:54:42;;;;;;;28.77;13.60;;;8.00;76.40;;;;;;5070727;28;20843;-74
2021/03/25 07:57:15;;;;;;;24.33;12.57;;;8.20;75.90;;;;;;5059635;28;20981;-73
2021/03/25 07:59:49;;;;;;;25.77;12.20;;;8.40;75.40;;;;;;5070982;28;20431;-72
2021/03/25 08:02:33;;;;;;;27.17;12.50;;;8.60;73.90;;;;;;5066142;28;20455;-71
2021/03/25 08:05:19;;;;;;;22.97;13.10;;;8.70;73.60;;;;;;5070258;28;20586;-72
2021/03/25 08:07:46;;;;;;;20.80;12.40;;;8.70;73.30;;;;;;5062116;28;20442;-73
2021/03/25 08:10:33;;;;;;;41.73;13.50;;;8.80;72.70;;;;;;5073090;28;20425;-73
2021/03/25 08:13:24;;;;;;;23.57;12.13;;;8.80;72.00;;;;;;5077340;28;20418;-71
2021/03/25 08:15:52;;;;;;;20.97;12.03;;;8.90;71.60;;;;;;5076123;28;20470;-71
2021/03/25 08:18:29;;;;;;;23.63;12.30;;;9.10;70.70;;;;;;5073753;28;20418;-72
2021/03/25 08:21:19;;;;;;;24.47;11.27;;;9.30;70.20;;;;;;5077396;28;20456;-72
2021/03/25 08:24:02;;;;;;;21.63;12.37;;;9.50;69.20;;;;;;5076894;28;20438;-73
2021/03/25 08:27:04;;;;;;;24.63;11.70;;;9.50;68.80;;;;;;5074229;28;20437;-73
2021/03/25 08:29:57;;;;;;;25.77;11.77;;;9.60;68.50;;;;;;5037085;28;20433;-73
2021/03/25 08:32:51;;;;;;;18.63;12.30;;;9.50;68.50;;;;;;5070820;28;20429;-71
2021/03/25 08:35:37;;;;;;;29.73;13.17;;;9.60;68.80;;;;;;5070615;28;20851;-73
2021/03/25 08:38:25;;;;;;;26.60;13.20;;;9.80;68.20;;;;;;5061084;28;20430;-73
2021/03/25 08:40:57;;;;;;;22.43;12.23;;;9.80;67.60;;;;;;5071717;28;20993;-72
2021/03/25 08:43:34;;;;;;;30.93;13.20;;;9.80;67.90;;;;;;5070799;28;20809;-71
2021/03/25 08:46:29;;;;;;;22.50;11.87;;;9.80;68.00;;;;;;5061086;28;20426;-72
2021/03/25 08:49:03;;;;;;;26.30;12.43;;;9.90;67.60;;;;;;5056632;28;20533;-72
2021/03/25 08:51:34;;;;;;;26.87;12.47;;;10.00;67.20;;;;;;5070721;28;20434;-73
2021/03/25 08:54:27;;;;;;;23.47;13.00;;;10.10;67.30;;;;;;5071141;28;20458;-73
2021/03/25 08:57:05;;;;;;;26.17;12.80;;;10.20;66.60;;;;;;5067112;28;20426;-71
2021/03/25 08:59:46;;;;;;;20.60;11.83;;;10.40;66.30;;;;;;5065719;28;20421;-74
2021/03/25 09:02:24;;;;;;;29.70;12.93;;;10.60;65.40;;;;;;5073125;28;20426;-72
2021/03/25 09:04:52;;;;;;;29.87;12.53;;;10.60;65.10;;;;;;5092664;28;20448;-72
2021/03/25 09:07:19;;;;;;;20.10;11.00;;;10.70;65.10;;;;;;5071536;28;20495;-74
2021/03/25 09:09:54;;;;;;;29.03;13.20;;;10.70;65.00;;;;;;5071249;28;20421;-73
2021/03/25 09:12:29;;;;;;;22.10;12.90;;;10.80;65.00;;;;;;5067305;28;20435;-74
2021/03/25 09:14:57;;;;;;;19.63;12.00;;;11.00;64.70;;;;;;5070439;28;20465;-72
2021/03/25 09:17:27;;;;;;;18.23;11.27;;;11.20;63.80;;;;;;5069997;28;20456;-73
2021/03/25 09:19:55;;;;;;;23.60;12.40;;;11.40;63.10;;;;;;5069839;28;20573;-74
2021/03/25 09:22:45;;;;;;;28.40;13.83;;;11.60;62.60;;;;;;5069654;28;20516;-74
2021/03/25 09:25:20;;;;;;;21.93;12.20;;;11.80;61.90;;;;;;5070466;28;20495;-74
2021/03/25 09:27:57;;;;;;;29.33;12.57;;;11.80;61.30;;;;;;5059031;28;20513;-73
2021/03/25 09:30:40;;;;;;;20.43;11.33;;;11.80;61.60;;;;;;5071830;28;20539;-73
2021/03/25 09:33:40;;;;;;;23.83;11.60;;;12.00;61.20;;;;;;5072027;28;20417;-72
2021/03/25 09:36:18;;;;;;;25.30;11.67;;;12.20;60.60;;;;;;5066539;28;20953;-72
2021/03/25 09:39:11;;;;;;;23.23;11.43;;;12.40;59.60;;;;;;5055932;28;20463;-73
2021/03/25 09:41:40;;;;;;;30.20;12.33;;;12.50;59.60;;;;;;5069418;28;20472;-74
2021/03/25 09:44:15;;;;;;;20.20;12.23;;;12.50;59.20;;;;;;5068449;28;20529;-73
2021/03/25 09:46:53;;;;;;;21.73;11.20;;;12.70;58.90;;;;;;5056783;28;20429;-73
2021/03/25 09:49:26;;;;;;;20.83;11.03;;;12.80;58.70;;;;;;5069974;28;20838;-73
2021/03/25 09:52:07;;;;;;;16.90;10.20;;;12.90;58.10;;;;;;5069420;28;20430;-73
2021/03/25 09:54:41;;;;;;;20.23;10.73;;;13.00;58.10;;;;;;5069278;28;20477;-74
2021/03/25 09:57:15;;;;;;;24.80;11.30;;;13.10;57.70;;;;;;5071043;28;20417;-75
2021/03/25 10:00:32;;;;;;;28.13;11.07;;;13.30;56.90;;;;;;5071968;28;20417;-73
2021/03/25 10:03:01;;;;;;;19.93;10.37;;;13.50;56.50;;;;;;5048351;28;21111;-73
2021/03/25 10:05:30;;;;;;;18.07;10.50;;;13.70;56.10;;;;;;5073207;28;20437;-72
2021/03/25 10:08:20;;;;;;;20.70;10.27;;;13.80;55.40;;;;;;5074705;28;20471;-73
2021/03/25 10:10:59;;;;;;;17.53;9.80;;;13.90;55.20;;;;;;5075037;28;20429;-73
2021/03/25 10:13:44;;;;;;;20.67;11.20;;;14.00;54.90;;;;;;5074227;28;20433;-72
2021/03/25 10:16:30;;;;;;;15.50;9.37;;;14.00;54.90;;;;;;5075263;28;20488;-71
2021/03/25 10:18:58;;;;;;;21.17;11.13;;;14.10;54.20;;;;;;5073436;28;20437;-72
2021/03/25 10:21:45;;;;;;;15.70;8.87;;;14.10;53.80;;;;;;5073831;28;20893;-72
2021/03/25 10:24:28;;;;;;;16.87;8.30;;;14.20;52.90;;;;;;5074846;28;20445;-71
2021/03/25 10:27:25;;;;;;;18.40;8.30;;;14.30;51.20;;;;;;5075121;28;20493;-73
2021/03/25 10:29:51;;;;;;;12.37;7.70;;;14.40;49.40;;;;;;5068602;28;20429;-72
2021/03/25 10:32:28;;;;;;;16.67;9.00;;;14.50;50.50;;;;;;5073799;28;20432;-72
2021/03/25 10:34:59;;;;;;;19.13;9.70;;;14.60;50.30;;;;;;5073173;28;20476;-71
2021/03/25 10:37:38;;;;;;;14.50;9.20;;;14.60;50.50;;;;;;5067702;28;20412;-71
2021/03/25 10:40:07;;;;;;;16.97;9.20;;;14.70;50.60;;;;;;5064864;28;20463;-72
2021/03/25 10:42:37;;;;;;;18.23;8.87;;;14.60;49.50;;;;;;5075606;28;20422;-74
2021/03/25 10:45:16;;;;;;;17.47;8.30;;;14.60;49.70;;;;;;5072834;28;21055;-74
2021/03/25 10:47:56;;;;;;;15.37;8.50;;;14.70;49.30;;;;;;5061567;28;20433;-71
2021/03/25 10:50:32;;;;;;;21.53;9.40;;;15.00;49.30;;;;;;5071708;28;21099;-72
2021/03/25 10:53:02;;;;;;;20.90;9.30;;;15.40;48.60;;;;;;5072215;28;20454;-73
2021/03/25 10:55:35;;;;;;;15.90;8.23;;;15.70;47.30;;;;;;5072455;28;20470;-73
2021/03/25 10:58:04;;;;;;;14.90;8.03;;;16.10;46.20;;;;;;5072569;28;20445;-72
2021/03/25 11:00:39;;;;;;;15.23;7.13;;;16.20;44.10;;;;;;5073904;28;20512;-72
2021/03/25 11:03:28;;;;;;;18.77;8.57;;;16.40;44.20;;;;;;5072125;28;20516;-73
2021/03/25 11:05:57;;;;;;;13.70;7.73;;;16.80;43.10;;;;;;5069039;28;21008;-74
2021/03/25 11:08:39;;;;;;;15.50;7.70;;;16.80;42.80;;;;;;5073591;28;20417;-73
2021/03/25 11:11:24;;;;;;;20.40;7.80;;;16.60;42.60;;;;;;5072332;28;20428;-74
2021/03/25 11:14:03;;;;;;;13.87;7.00;;;16.80;42.20;;;;;;5072482;28;20421;-74
2021/03/25 11:16:31;;;;;;;13.40;6.90;;;17.00;41.10;;;;;;5073043;28;20421;-72
2021/03/25 11:19:06;;;;;;;16.33;7.93;;;17.00;41.10;;;;;;5073228;28;20416;-73
2021/03/25 11:21:34;;;;;;;17.60;7.30;;;17.00;40.80;;;;;;5071931;28;20413;-74
2021/03/25 11:24:03;;;;;;;13.77;7.70;;;17.30;41.00;;;;;;5072499;28;20460;-73
2021/03/25 11:26:29;;;;;;;12.87;6.80;;;17.60;40.00;;;;;;5075042;28;20488;-73
2021/03/25 11:28:55;;;;;;;12.30;6.50;;;17.70;39.10;;;;;;5074339;28;20477;-74
2021/03/25 11:31:28;;;;;;;12.80;6.33;;;17.90;37.60;;;;;;5081369;28;20418;-74
2021/03/25 11:33:56;;;;;;;11.03;5.73;;;18.10;37.90;;;;;;5077808;28;20436;-74
2021/03/25 11:36:46;;;;;;;15.37;7.53;;;18.60;36.60;;;;;;5067012;28;20437;-73
2021/03/25 11:39:23;;;;;;;11.50;5.90;;;19.00;35.20;;;;;;5058933;28;20417;-73
2021/03/25 11:41:52;;;;;;;12.90;5.93;;;18.60;35.50;;;;;;5071432;28;20407;-73
2021/03/25 11:44:45;;;;;;;12.80;5.70;;;18.50;36.60;;;;;;5070499;28;20813;-72
2021/03/25 11:47:35;;;;;;;16.17;6.97;;;19.00;36.00;;;;;;5058366;28;20451;-74
2021/03/25 11:50:24;;;;;;;15.43;6.80;;;19.50;35.60;;;;;;5068561;28;20940;-74
2021/03/25 11:52:54;;;;;;;12.20;5.90;;;20.10;34.50;;;;;;5063943;28;20482;-74
2021/03/25 11:55:42;;;;;;;10.50;5.90;;;19.90;33.70;;;;;;5072683;28;20519;-74
2021/03/25 11:58:23;;;;;;;13.00;6.97;;;19.70;35.10;;;;;;5071507;28;20432;-73
2021/03/25 12:01:14;;;;;;;9.70;5.63;;;19.90;34.80;;;;;;5071230;28;20483;-73
2021/03/25 12:04:04;;;;;;;13.73;6.97;;;19.90;35.10;;;;;;5059669;28;20438;-75
2021/03/25 12:06:36;;;;;;;13.63;7.60;;;20.00;34.30;;;;;;5072089;28;20426;-72
2021/03/25 12:09:20;;;;;;;13.60;7.07;;;19.60;35.60;;;;;;5071885;28;20430;-74
2021/03/25 12:11:49;;;;;;;14.37;7.30;;;19.00;37.60;;;;;;5062297;28;20507;-74
2021/03/25 12:14:17;;;;;;;16.70;8.10;;;19.00;37.20;;;;;;5075316;28;20440;-74
2021/03/25 12:16:43;;;;;;;13.80;7.40;;;19.10;37.20;;;;;;5079648;28;20422;-74
2021/03/25 12:19:09;;;;;;;15.37;6.17;;;19.20;37.20;;;;;;5073165;28;20578;-72
2021/03/25 12:21:41;;;;;;;15.50;7.17;;;19.40;37.00;;;;;;5071542;28;20425;-73
2021/03/25 12:24:09;;;;;;;15.30;7.93;;;19.50;37.20;;;;;;5073196;28;20512;-72
2021/03/25 12:26:35;;;;;;;19.40;8.27;;;19.40;37.50;;;;;;5072957;28;20414;-72
2021/03/25 12:29:04;;;;;;;16.27;8.20;;;19.80;37.50;;;;;;5070855;28;20491;-74
2021/03/25 12:31:38;;;;;;;16.13;8.27;;;20.30;36.20;;;;;;5066983;28;20199;-73
2021/03/25 12:34:06;;;;;;;17.93;8.30;;;20.30;35.30;;;;;;5073350;28;20434;-74
2021/03/25 12:36:32;;;;;;;15.67;7.60;;;19.50;37.80;;;;;;5075303;28;20427;-72
2021/03/25 12:38:58;;;;;;;15.37;8.23;;;19.40;38.40;;;;;;5059793;28;20483;-73
2021/03/25 12:41:41;;;;;;;18.27;8.00;;;19.10;38.80;;;;;;5068734;28;20816;-72
2021/03/25 12:44:08;;;;;;;15.30;9.23;;;18.90;38.80;;;;;;5070355;28;20469;-73
2021/03/25 12:46:34;;;;;;;18.33;8.43;;;18.90;39.10;;;;;;5056346;28;20424;-74
2021/03/25 12:49:00;;;;;;;16.27;8.97;;;19.10;39.00;;;;;;5071087;28;20433;-72
2021/03/25 12:51:26;;;;;;;17.63;7.83;;;19.30;38.40;;;;;;5069613;28;20422;-74
2021/03/25 12:53:52;;;;;;;17.20;8.33;;;19.10;39.50;;;;;;5069341;28;21141;-74
2021/03/25 12:56:31;;;;;;;18.50;8.17;;;18.80;40.20;;;;;;5069201;28;20828;-73
2021/03/25 12:59:01;;;;;;;16.20;7.60;;;18.80;40.60;;;;;;5069544;28;20476;-72
2021/03/25 13:01:28;;;;;;;15.40;8.10;;;18.60;40.00;;;;;;5069037;28;20418;-73
2021/03/25 13:03:55;;;;;;;12.87;7.87;;;18.50;41.00;;;;;;5070586;28;20469;-73
2021/03/25 13:06:21;;;;;;;16.20;8.37;;;18.50;40.80;;;;;;5069303;28;20428;-72
2021/03/25 13:08:47;;;;;;;22.23;8.37;;;18.70;40.60;;;;;;5068905;28;20425;-73
2021/03/25 13:11:25;;;;;;;18.00;8.27;;;18.80;40.20;;;;;;5070017;28;20420;-72
2021/03/25 13:13:52;;;;;;;14.93;9.03;;;18.80;40.20;;;;;;5069516;28;20458;-72
2021/03/25 13:16:18;;;;;;;16.77;8.13;;;18.50;41.10;;;;;;5069920;28;20510;-73
2021/03/25 13:18:44;;;;;;;18.40;8.80;;;18.60;41.00;;;;;;5071364;28;21103;-75
2021/03/25 13:21:10;;;;;;;17.07;8.37;;;18.70;40.70;;;;;;5065469;28;20442;-74